Time;durP1;ratioP1;P1;durP2;ratioP2;P2;SDS_P1;SDS_P2;PMS_P1;PMS_P2;Temp;Humidity;BMP_temperature;BMP_pressure;BME280_temperature;BME280_humidity;BME280_pressure;Samples;Min_cycle;Max_cycle;Signal;HPM_P1;HPM_P2
2024/02/10 07:39:48;;;;;;;9.63;6.03;;;;;;;;;;6102387;23;20358;-94
2024/02/10 07:42:14;;;;;;;9.95;5.40;;;;;;;;;;6161777;23;20369;-92
2024/02/10 07:44:40;;;;;;;11.05;6.82;;;;;;;;;;6161932;23;20001;-93
2024/02/10 07:47:12;;;;;;;9.38;5.50;;;;;;;;;;6163016;23;20005;-95
2024/02/10 07:49:38;;;;;;;10.65;5.68;;;;;;;;;;6162004;23;20009;-96
2024/02/10 07:52:04;;;;;;;8.07;4.22;;;;;;;;;;6174363;23;20049;-91
2024/02/10 07:54:32;;;;;;;7.75;5.00;;;;;;;;;;6179703;23;20013;-93
2024/02/10 07:56:59;;;;;;;9.15;4.78;;;;;;;;;;6162135;23;20001;-94
2024/02/10 07:59:26;;;;;;;8.95;5.10;;;;;;;;;;6162651;23;20091;-95
2024/02/10 08:01:52;;;;;;;8.48;5.38;;;;;;;;;;6162454;23;20029;-94
2024/02/10 08:04:18;;;;;;;9.82;5.35;;;;;;;;;;6161468;23;20096;-93
2024/02/10 08:06:45;;;;;;;5.43;3.40;;;;;;;;;;6160975;23;20013;-95
2024/02/10 08:09:14;;;;;;;8.25;3.38;;;;;;;;;;6179359;23;20000;-94
2024/02/10 08:11:43;;;;;;;8.73;3.92;;;;;;;;;;6188487;23;19993;-94
2024/02/10 08:14:14;;;;;;;4.50;2.33;;;;;;;;;;6167873;23;20015;-95
2024/02/10 08:16:40;;;;;;;5.20;2.80;;;;;;;;;;6161185;23;20373;-95
2024/02/10 08:19:07;;;;;;;6.80;3.05;;;;;;;;;;6160637;23;20105;-93
2024/02/10 08:21:33;;;;;;;5.55;2.63;;;;;;;;;;6161114;23;20009;-95
2024/02/10 08:23:59;;;;;;;5.68;2.25;;;;;;;;;;6162682;23;20012;-94
2024/02/10 08:26:29;;;;;;;4.63;2.40;;;;;;;;;;6160590;23;20005;-96
2024/02/10 08:28:59;;;;;;;5.05;2.67;;;;;;;;;;6160266;23;20005;-95
2024/02/10 08:31:30;;;;;;;4.95;2.10;;;;;;;;;;6160705;23;20009;-95
2024/02/10 08:33:58;;;;;;;6.07;2.50;;;;;;;;;;6162153;23;20001;-94
2024/02/10 08:36:27;;;;;;;3.72;2.03;;;;;;;;;;6161191;23;20004;-94
2024/02/10 08:38:56;;;;;;;4.63;2.33;;;;;;;;;;6160726;23;20001;-95
2024/02/10 08:41:22;;;;;;;4.40;1.90;;;;;;;;;;6160903;23;20017;-95
2024/02/10 08:43:49;;;;;;;4.85;2.15;;;;;;;;;;6161303;23;20029;-94
2024/02/10 08:46:15;;;;;;;6.45;2.55;;;;;;;;;;6160663;23;20005;-93
2024/02/10 08:48:42;;;;;;;3.95;2.30;;;;;;;;;;6160656;23;20088;-96
2024/02/10 08:51:12;;;;;;;5.70;2.20;;;;;;;;;;6160836;23;20465;-95
2024/02/10 08:53:40;;;;;;;5.82;2.13;;;;;;;;;;6160520;23;20071;-95
2024/02/10 08:56:11;;;;;;;4.07;2.55;;;;;;;;;;6186812;23;20425;-95
2024/02/10 08:58:40;;;;;;;8.07;2.70;;;;;;;;;;6160499;23;20439;-95
2024/02/10 09:01:15;;;;;;;4.28;1.95;;;;;;;;;;6160736;23;20079;-94
2024/02/10 09:03:44;;;;;;;14.95;2.40;;;;;;;;;;6162129;23;20393;-95
2024/02/10 09:06:11;;;;;;;5.32;3.85;;;;;;;;;;6161012;23;20029;-94
2024/02/10 09:08:39;;;;;;;4.72;3.22;;;;;;;;;;6162451;23;20005;-96
2024/02/10 09:11:05;;;;;;;4.80;4.03;;;;;;;;;;6162051;23;20013;-95
2024/02/10 09:13:31;;;;;;;6.18;5.57;;;;;;;;;;6161690;23;20095;-90
2024/02/10 09:15:57;;;;;;;6.57;3.63;;;;;;;;;;6160960;23;20013;-92
2024/02/10 09:18:23;;;;;;;5.05;4.30;;;;;;;;;;6161555;23;20008;-92
2024/02/10 09:20:50;;;;;;;4.25;3.72;;;;;;;;;;6162069;23;20465;-93
2024/02/10 09:23:16;;;;;;;6.45;3.92;;;;;;;;;;6162687;23;20072;-93
2024/02/10 09:25:42;;;;;;;5.95;5.32;;;;;;;;;;6162136;23;20009;-91
2024/02/10 09:28:09;;;;;;;8.75;5.90;;;;;;;;;;6161868;23;20426;-91
2024/02/10 09:30:35;;;;;;;7.88;5.07;;;;;;;;;;6162247;23;20096;-94
2024/02/10 09:33:02;;;;;;;5.00;3.55;;;;;;;;;;6162741;23;20417;-95
2024/02/10 09:35:39;;;;;;;5.30;3.60;;;;;;;;;;6163853;23;20009;-96
2024/02/10 09:38:15;;;;;;;4.82;1.48;;;;;;;;;;6191501;23;20001;-94
2024/02/10 09:40:42;;;;;;;4.07;1.85;;;;;;;;;;6163673;23;20027;-90
2024/02/10 09:43:14;;;;;;;7.13;2.25;;;;;;;;;;6162870;23;20009;-90
2024/02/10 09:45:41;;;;;;;4.68;2.25;;;;;;;;;;6169983;23;20330;-90
2024/02/10 09:48:09;;;;;;;4.28;1.85;;;;;;;;;;6188645;23;20008;-89
2024/02/10 09:50:38;;;;;;;3.80;1.73;;;;;;;;;;6164360;23;20342;-89
2024/02/10 09:53:04;;;;;;;4.78;2.00;;;;;;;;;;6193848;23;20006;-87
2024/02/10 09:55:39;;;;;;;4.32;2.13;;;;;;;;;;6151374;23;20770;-95
2024/02/10 09:58:16;;;;;;;3.72;1.90;;;;;;;;;;6128315;23;20038;-96
2024/02/10 10:00:50;;;;;;;4.30;1.90;;;;;;;;;;6145710;23;20010;-96
2024/02/10 10:03:23;;;;;;;3.88;2.03;;;;;;;;;;6120807;23;20179;-95
2024/02/10 10:05:50;;;;;;;3.20;1.88;;;;;;;;;;6111430;23;20049;-90
2024/02/10 10:08:49;;;;;;;5.18;2.33;;;;;;;;;;6122327;23;20026;-96
2024/02/10 10:11:34;;;;;;;5.20;2.78;;;;;;;;;;6128568;23;20014;-95
2024/02/10 10:14:03;;;;;;;4.40;1.83;;;;;;;;;;6136818;23;20006;-96
2024/02/10 10:16:35;;;;;;;5.75;3.78;;;;;;;;;;6108050;23;20002;-94
2024/02/10 10:19:03;;;;;;;4.25;3.47;;;;;;;;;;6076732;23;20016;-89
2024/02/10 10:21:32;;;;;;;6.40;4.70;;;;;;;;;;6103894;23;20006;-93
2024/02/10 10:23:58;;;;;;;5.38;4.70;;;;;;;;;;6103410;23;20010;-92
2024/02/10 10:26:36;;;;;;;6.15;4.60;;;;;;;;;;6107137;23;20017;-94
2024/02/10 10:29:09;;;;;;;7.68;5.97;;;;;;;;;;6121850;23;20029;-90
2024/02/10 10:34:33;;;;;;;11.32;10.40;;;;;;;;;;6106634;23;20025;-89
2024/02/10 10:37:01;;;;;;;7.93;7.22;;;;;;;;;;6167699;23;20054;-89
2024/02/10 10:39:30;;;;;;;10.35;9.45;;;;;;;;;;6169169;23;20005;-89
2024/02/10 10:45:05;;;;;;;13.55;12.45;;;;;;;;;;6172034;23;20085;-88
2024/02/10 10:47:34;;;;;;;12.55;11.52;;;;;;;;;;6163672;23;20108;-88
2024/02/10 10:50:19;;;;;;;10.98;10.18;;;;;;;;;;6166990;23;20039;-90
2024/02/10 10:52:47;;;;;;;14.90;13.77;;;;;;;;;;6162245;23;20055;-89
2024/02/10 10:55:15;;;;;;;12.30;11.45;;;;;;;;;;6161420;23;20160;-87
2024/02/10 10:57:43;;;;;;;9.48;8.57;;;;;;;;;;6161672;23;20090;-91
2024/02/10 11:00:15;;;;;;;14.50;13.40;;;;;;;;;;6166233;23;20020;-96
2024/02/10 11:02:41;;;;;;;9.13;8.43;;;;;;;;;;6167142;23;20000;-93
2024/02/10 11:05:18;;;;;;;11.63;10.82;;;;;;;;;;6163234;23;20005;-89
2024/02/10 11:07:50;;;;;;;9.85;9.15;;;;;;;;;;6167766;23;20013;-92
2024/02/10 11:19:02;;;;;;;7.93;7.13;;;;;;;;;;6133277;23;20017;-89
2024/02/10 11:21:30;;;;;;;8.75;8.05;;;;;;;;;;6117824;23;20017;-90
2024/02/10 11:24:29;;;;;;;8.93;6.60;;;;;;;;;;6136046;23;20009;-93
2024/02/10 11:26:56;;;;;;;9.05;8.23;;;;;;;;;;6076125;23;20033;-90
2024/02/10 11:29:54;;;;;;;9.68;8.82;;;;;;;;;;6140048;23;20017;-96
2024/02/10 11:32:34;;;;;;;8.63;8.00;;;;;;;;;;6141998;23;20013;-96
2024/02/10 11:37:52;;;;;;;11.85;10.88;;;;;;;;;;6151532;23;20134;-89
2024/02/10 11:40:36;;;;;;;12.50;11.60;;;;;;;;;;6141882;23;20120;-93
2024/02/10 11:43:10;;;;;;;12.50;11.55;;;;;;;;;;6178815;23;19994;-89
2024/02/10 11:45:42;;;;;;;15.88;14.60;;;;;;;;;;6157929;23;20045;-90
2024/02/10 11:48:10;;;;;;;15.73;14.10;;;;;;;;;;6134079;23;20012;-95
2024/02/10 11:50:44;;;;;;;16.02;14.90;;;;;;;;;;6156476;23;20020;-91
2024/02/10 11:53:16;;;;;;;16.88;15.77;;;;;;;;;;6156398;23;20001;-91
2024/02/10 11:55:47;;;;;;;18.08;16.38;;;;;;;;;;6138939;23;20032;-96
2024/02/10 11:58:18;;;;;;;15.32;14.05;;;;;;;;;;6163272;23;20076;-96
2024/02/10 12:00:46;;;;;;;13.90;12.88;;;;;;;;;;6163691;23;20025;-90
2024/02/10 12:03:23;;;;;;;15.10;13.82;;;;;;;;;;6135051;23;20060;-94
2024/02/10 12:05:49;;;;;;;14.25;13.07;;;;;;;;;;6133686;23;20117;-92
2024/02/10 12:08:15;;;;;;;21.23;19.27;;;;;;;;;;6134523;23;20068;-94
2024/02/10 12:10:42;;;;;;;20.83;18.85;;;;;;;;;;6134370;23;20017;-90
2024/02/10 12:13:09;;;;;;;18.25;16.95;;;;;;;;;;6132986;23;20008;-91
2024/02/10 12:15:37;;;;;;;17.83;16.08;;;;;;;;;;6133077;23;20009;-96
2024/02/10 12:18:04;;;;;;;16.90;15.55;;;;;;;;;;6133299;23;20005;-94
2024/02/10 12:20:41;;;;;;;16.02;14.75;;;;;;;;;;6159676;23;20009;-95
2024/02/10 12:23:07;;;;;;;17.02;15.43;;;;;;;;;;6131824;23;20001;-96
2024/02/10 12:25:33;;;;;;;17.45;15.68;;;;;;;;;;6132876;23;20010;-93
2024/02/10 12:28:00;;;;;;;15.73;14.45;;;;;;;;;;6136172;23;20008;-94
2024/02/10 12:30:26;;;;;;;14.90;13.43;;;;;;;;;;6134664;23;20355;-95
2024/02/10 12:32:52;;;;;;;13.65;12.27;;;;;;;;;;6131854;23;20390;-93
2024/02/10 12:35:19;;;;;;;15.43;13.90;;;;;;;;;;6131874;23;20006;-93
2024/02/10 12:37:49;;;;;;;14.50;13.07;;;;;;;;;;6131404;23;20032;-93
2024/02/10 12:40:18;;;;;;;13.73;12.52;;;;;;;;;;6130305;23;20121;-93
2024/02/10 12:42:44;;;;;;;14.20;11.25;;;;;;;;;;6131241;23;20308;-90
2024/02/10 12:45:14;;;;;;;13.48;12.27;;;;;;;;;;6132389;23;20419;-94
2024/02/10 12:47:43;;;;;;;14.88;12.38;;;;;;;;;;6132644;23;20009;-93
2024/02/10 12:50:09;;;;;;;21.52;11.43;;;;;;;;;;6133746;23;20076;-93
2024/02/10 12:52:36;;;;;;;13.30;11.43;;;;;;;;;;6133199;23;20431;-94
2024/02/10 12:55:09;;;;;;;15.50;10.15;;;;;;;;;;6132935;23;20510;-94
2024/02/10 12:57:35;;;;;;;;;;;;;;;;;;6133679;23;20486;-94
2024/02/10 13:00:19;;;;;;;17.83;16.02;;;;;;;;;;6134016;23;19901;-92
2024/02/10 13:02:57;;;;;;;15.07;13.60;;;;;;;;;;6160259;23;20006;-94
2024/02/10 13:05:25;;;;;;;17.10;14.48;;;;;;;;;;6138681;23;20006;-95
2024/02/10 13:08:12;;;;;;;19.67;17.77;;;;;;;;;;6135784;23;20068;-95
2024/02/10 13:11:04;;;;;;;14.65;13.25;;;;;;;;;;6154006;23;20017;-94
2024/02/10 13:13:30;;;;;;;13.27;11.88;;;;;;;;;;6134555;23;20009;-95
2024/02/10 13:15:57;;;;;;;14.57;12.82;;;;;;;;;;6133794;23;20010;-91
2024/02/10 13:18:23;;;;;;;15.68;12.38;;;;;;;;;;6134275;23;20012;-91
2024/02/10 13:20:50;;;;;;;11.23;9.60;;;;;;;;;;6133662;23;20009;-93
2024/02/10 13:23:17;;;;;;;15.98;10.57;;;;;;;;;;6135917;23;20028;-91
2024/02/10 13:25:48;;;;;;;18.27;11.95;;;;;;;;;;6136863;23;20434;-92
2024/02/10 13:28:14;;;;;;;15.07;12.40;;;;;;;;;;6146674;23;20045;-92
2024/02/10 13:30:44;;;;;;;14.50;12.27;;;;;;;;;;6158827;23;20021;-92
2024/02/10 13:33:10;;;;;;;15.13;11.60;;;;;;;;;;6144689;23;20030;-91
2024/02/10 13:35:39;;;;;;;15.35;13.98;;;;;;;;;;6137015;23;20060;-91
2024/02/10 14:04:03;;;;;;;17.25;14.93;;;;;;;;;;6139706;23;20033;-96
2024/02/10 14:06:34;;;;;;;18.58;16.92;;;;;;;;;;6200688;23;20063;-95
2024/02/10 14:09:06;;;;;;;19.83;16.55;;;;;;;;;;6179531;23;20012;-96
2024/02/10 14:11:32;;;;;;;22.07;20.27;;;;;;;;;;6177654;23;20016;-96
2024/02/10 14:14:05;;;;;;;20.35;18.55;;;;;;;;;;6182210;23;19989;-96
2024/02/10 14:21:44;;;;;;;23.23;18.98;;;;;;;;;;6141277;23;20001;-89
2024/02/10 14:29:29;;;;;;;21.83;17.67;;;;;;;;;;6131449;23;20267;-88
2024/02/10 14:32:09;;;;;;;26.48;19.05;;;;;;;;;;6131312;23;20049;-90
2024/02/10 14:35:46;;;;;;;23.60;21.27;;;;;;;;;;6176286;23;20002;-90
2024/02/10 14:37:46;;;;;;;21.42;19.02;;;;;;;;;;6149817;23;19993;-91
2024/02/10 14:43:29;;;;;;;21.40;18.02;;;;;;;;;;6172735;23;20060;-96
2024/02/10 14:45:57;;;;;;;;;;;;;;;;;;6175613;23;20061;-94
2024/02/10 14:48:28;;;;;;;38.03;34.83;;;;;;;;;;6153696;23;19959;-95
2024/02/10 14:51:00;;;;;;;25.02;22.63;;;;;;;;;;6138457;23;20014;-90
2024/02/10 14:53:34;;;;;;;25.00;22.27;;;;;;;;;;6127409;23;20081;-91
2024/02/10 14:56:25;;;;;;;25.20;22.60;;;;;;;;;;6129151;23;20085;-96
2024/02/10 14:58:52;;;;;;;25.52;19.70;;;;;;;;;;6128387;23;20006;-94
2024/02/10 15:01:18;;;;;;;24.52;21.42;;;;;;;;;;6129129;23;20089;-95
2024/02/10 15:03:51;;;;;;;37.15;33.70;;;;;;;;;;6131705;23;20002;-96
2024/02/10 15:06:19;;;;;;;26.88;24.15;;;;;;;;;;6135837;23;20020;-94
2024/02/10 15:09:01;;;;;;;23.40;21.05;;;;;;;;;;6142076;23;20002;-95
2024/02/10 15:11:30;;;;;;;28.00;25.48;;;;;;;;;;6146080;23;20001;-95
2024/02/10 15:14:13;;;;;;;36.72;33.67;;;;;;;;;;6140463;23;20056;-96
2024/02/10 15:19:39;;;;;;;41.08;37.67;;;;;;;;;;6116558;23;20041;-96
2024/02/10 15:22:33;;;;;;;45.88;41.28;;;;;;;;;;6079348;23;20010;-96
2024/02/10 15:25:07;;;;;;;42.63;38.83;;;;;;;;;;6114657;23;19998;-95
2024/02/10 15:27:38;;;;;;;43.95;40.35;;;;;;;;;;6119953;23;19990;-96
2024/02/10 15:30:09;;;;;;;39.22;35.85;;;;;;;;;;6114169;23;20009;-95
2024/02/10 15:32:46;;;;;;;39.35;36.25;;;;;;;;;;6087012;23;19994;-94
2024/02/10 15:35:15;;;;;;;46.10;42.13;;;;;;;;;;6114787;23;20037;-94
2024/02/10 15:37:41;;;;;;;42.53;39.28;;;;;;;;;;6110894;23;19990;-96
2024/02/10 15:40:20;;;;;;;42.05;38.33;;;;;;;;;;6111649;23;20029;-95
2024/02/10 15:42:56;;;;;;;41.92;38.03;;;;;;;;;;6113579;23;20025;-95
2024/02/10 15:45:36;;;;;;;47.53;43.78;;;;;;;;;;6108806;23;20045;-96
2024/02/10 15:48:23;;;;;;;49.20;45.28;;;;;;;;;;6110448;23;20325;-94
2024/02/10 15:50:53;;;;;;;42.47;38.58;;;;;;;;;;6110447;23;19999;-95
2024/02/10 15:53:26;;;;;;;41.38;37.95;;;;;;;;;;6112520;23;20062;-95
2024/02/10 15:56:31;;;;;;;45.67;41.88;;;;;;;;;;6134750;23;20050;-94
2024/02/10 15:58:58;;;;;;;49.25;44.95;;;;;;;;;;6141609;23;20009;-94
2024/02/10 16:01:44;;;;;;;41.33;37.97;;;;;;;;;;6145029;23;19986;-96
2024/02/10 16:04:13;;;;;;;;;;;;;;;;;;6148410;23;19986;-96
2024/02/10 16:06:46;;;;;;;46.22;42.28;;;;;;;;;;6144247;23;19905;-96
2024/02/10 16:09:27;;;;;;;49.33;45.88;;;;;;;;;;6140577;23;20108;-96
2024/02/10 16:12:11;;;;;;;49.97;46.28;;;;;;;;;;6139493;23;20009;-96
2024/02/10 16:14:38;;;;;;;49.00;45.08;;;;;;;;;;6141131;23;20010;-95
2024/02/10 16:17:14;;;;;;;46.03;42.65;;;;;;;;;;6141084;23;20014;-91
2024/02/10 16:22:36;;;;;;;43.70;39.97;;;;;;;;;;6140521;23;19924;-96
2024/02/10 16:25:06;;;;;;;56.20;52.05;;;;;;;;;;6140863;23;20006;-93
2024/02/10 16:27:33;;;;;;;43.33;40.10;;;;;;;;;;6140534;23;20018;-95
2024/02/10 16:30:00;;;;;;;46.35;42.47;;;;;;;;;;6142553;23;20018;-95
2024/02/10 16:32:27;;;;;;;47.50;43.72;;;;;;;;;;6137217;23;19990;-94
2024/02/10 16:34:54;;;;;;;43.08;39.78;;;;;;;;;;6138413;23;19994;-93
2024/02/10 16:37:27;;;;;;;47.33;43.45;;;;;;;;;;6139378;23;20006;-91
2024/02/10 16:39:53;;;;;;;44.70;41.30;;;;;;;;;;6138979;23;20005;-90
2024/02/10 16:42:20;;;;;;;47.67;43.53;;;;;;;;;;6139917;23;20006;-93
2024/02/10 16:44:57;;;;;;;46.05;42.25;;;;;;;;;;6140005;23;20033;-93
2024/02/10 16:47:25;;;;;;;47.08;43.03;;;;;;;;;;6145166;23;20010;-93
2024/02/10 16:49:52;;;;;;;49.13;45.10;;;;;;;;;;6147766;23;20010;-93
2024/02/10 16:52:22;;;;;;;44.13;40.53;;;;;;;;;;6143781;23;20009;-89
2024/02/10 16:57:47;;;;;;;53.70;49.60;;;;;;;;;;6238262;23;20115;-93
2024/02/10 17:00:24;;;;;;;48.83;45.08;;;;;;;;;;6197526;23;20008;-94
2024/02/10 17:03:04;;;;;;;45.10;41.55;;;;;;;;;;6195529;23;20016;-93
2024/02/10 17:05:51;;;;;;;47.97;44.38;;;;;;;;;;6199988;23;20067;-93
2024/02/10 17:08:27;;;;;;;46.30;42.58;;;;;;;;;;6202075;23;20000;-93
2024/02/10 17:11:07;;;;;;;44.60;41.10;;;;;;;;;;6226874;23;20438;-92
2024/02/10 17:16:30;;;;;;;46.65;43.17;;;;;;;;;;6204515;23;20475;-90
2024/02/10 17:18:56;;;;;;;49.03;45.28;;;;;;;;;;6229563;23;19984;-91
2024/02/10 17:21:28;;;;;;;45.28;41.58;;;;;;;;;;6199404;23;20076;-92
2024/02/10 17:24:31;;;;;;;45.92;41.65;;;;;;;;;;6232583;23;20008;-89
2024/02/10 17:27:01;;;;;;;41.22;38.08;;;;;;;;;;6223622;23;19989;-91
2024/02/10 17:29:29;;;;;;;51.90;47.78;;;;;;;;;;6202622;23;20058;-92
2024/02/10 17:31:58;;;;;;;41.83;38.20;;;;;;;;;;6204807;23;20011;-94
2024/02/10 17:34:26;;;;;;;46.47;42.45;;;;;;;;;;6205784;23;20896;-94
2024/02/10 17:36:57;;;;;;;46.67;43.28;;;;;;;;;;6199722;23;20001;-93
2024/02/10 17:39:23;;;;;;;41.00;37.58;;;;;;;;;;6203724;23;20008;-95
2024/02/10 17:41:49;;;;;;;41.92;38.33;;;;;;;;;;6201256;23;19984;-94
2024/02/10 17:44:21;;;;;;;46.88;43.42;;;;;;;;;;6205095;23;20065;-94
2024/02/10 17:46:48;;;;;;;36.33;32.72;;;;;;;;;;6206668;23;20059;-95
2024/02/10 17:49:25;;;;;;;44.17;40.03;;;;;;;;;;6231053;23;19996;-96
2024/02/10 17:51:52;;;;;;;42.05;38.55;;;;;;;;;;6202587;23;20012;-96
2024/02/10 17:54:28;;;;;;;50.25;45.60;;;;;;;;;;6202602;23;20005;-95
2024/02/10 17:56:55;;;;;;;43.25;39.90;;;;;;;;;;6194225;23;20071;-95
2024/02/10 17:59:21;;;;;;;39.17;35.00;;;;;;;;;;6186551;23;20025;-95
2024/02/10 18:01:48;;;;;;;38.75;34.80;;;;;;;;;;6186498;23;20001;-96
2024/02/10 18:04:14;;;;;;;45.33;41.55;;;;;;;;;;6186448;23;20001;-95
2024/02/10 18:06:42;;;;;;;39.75;35.55;;;;;;;;;;6188262;23;20091;-95
2024/02/10 18:09:09;;;;;;;42.08;37.17;;;;;;;;;;6187091;23;20001;-96
2024/02/10 18:11:35;;;;;;;36.75;33.47;;;;;;;;;;6187524;23;20064;-95
2024/02/10 18:14:01;;;;;;;33.75;30.58;;;;;;;;;;6190046;23;20001;-94
2024/02/10 18:16:28;;;;;;;39.60;35.63;;;;;;;;;;6188018;23;20009;-95
2024/02/10 18:18:54;;;;;;;37.60;33.75;;;;;;;;;;6190047;23;19998;-94
2024/02/10 18:21:22;;;;;;;39.03;35.55;;;;;;;;;;6187296;23;20012;-94
2024/02/10 18:23:48;;;;;;;35.28;27.90;;;;;;;;;;6187705;23;20072;-94
2024/02/10 18:26:23;;;;;;;35.83;29.20;;;;;;;;;;6195093;23;20001;-96
2024/02/10 18:28:54;;;;;;;29.35;26.58;;;;;;;;;;6204326;23;20381;-95
2024/02/10 18:31:31;;;;;;;35.10;31.67;;;;;;;;;;6197894;23;20012;-93
2024/02/10 18:33:58;;;;;;;33.58;26.48;;;;;;;;;;6200231;23;19996;-94
2024/02/10 18:36:31;;;;;;;34.47;30.98;;;;;;;;;;6190266;23;20020;-93
2024/02/10 18:41:39;;;;;;;31.88;28.50;;;;;;;;;;6148432;23;20026;-95
2024/02/10 18:44:08;;;;;;;29.67;26.70;;;;;;;;;;6110118;23;20029;-95
2024/02/10 18:46:34;;;;;;;26.95;24.10;;;;;;;;;;6105330;23;20010;-96
2024/02/10 18:49:00;;;;;;;27.98;23.83;;;;;;;;;;6102930;23;20012;-96
2024/02/10 18:51:27;;;;;;;31.08;23.08;;;;;;;;;;6103383;23;20017;-93
2024/02/10 18:53:56;;;;;;;29.00;22.77;;;;;;;;;;6105073;23;20006;-94
2024/02/10 18:56:35;;;;;;;27.58;20.23;;;;;;;;;;6130539;23;20009;-94
2024/02/10 18:59:01;;;;;;;23.63;18.60;;;;;;;;;;6104872;23;20073;-94
2024/02/10 19:01:31;;;;;;;31.33;25.05;;;;;;;;;;6104351;23;20029;-96
2024/02/10 19:03:58;;;;;;;24.77;18.00;;;;;;;;;;6105453;23;20014;-95
2024/02/10 19:06:24;;;;;;;26.13;22.42;;;;;;;;;;6105176;23;20029;-94
2024/02/10 19:08:53;;;;;;;21.75;16.42;;;;;;;;;;6104385;23;20122;-92
2024/02/10 19:11:19;;;;;;;32.22;17.13;;;;;;;;;;6103649;23;20101;-93
2024/02/10 19:13:47;;;;;;;20.30;15.43;;;;;;;;;;6104178;23;20006;-93
2024/02/10 19:16:13;;;;;;;30.33;20.00;;;;;;;;;;6103918;23;20053;-93
2024/02/10 19:18:39;;;;;;;27.77;17.63;;;;;;;;;;6104729;23;20065;-94
2024/02/10 19:21:13;;;;;;;23.65;16.90;;;;;;;;;;6111576;23;20017;-92
2024/02/10 19:23:48;;;;;;;19.02;14.93;;;;;;;;;;6104979;23;20006;-95
2024/02/10 19:26:21;;;;;;;27.90;18.65;;;;;;;;;;6084990;23;20010;-96
2024/02/10 19:28:55;;;;;;;25.13;18.92;;;;;;;;;;6143447;23;20021;-92
2024/02/10 19:31:22;;;;;;;29.17;23.08;;;;;;;;;;6128893;23;19998;-93
2024/02/10 19:33:48;;;;;;;25.33;16.95;;;;;;;;;;6122920;23;20006;-93
2024/02/10 19:36:15;;;;;;;19.38;16.83;;;;;;;;;;6113666;23;20030;-94
2024/02/10 19:38:43;;;;;;;31.02;25.02;;;;;;;;;;6132809;23;20040;-94
2024/02/10 19:41:15;;;;;;;25.70;23.08;;;;;;;;;;6104010;23;20018;-94
2024/02/10 19:43:42;;;;;;;21.10;15.60;;;;;;;;;;6104986;23;20055;-93
2024/02/10 19:46:14;;;;;;;24.77;21.52;;;;;;;;;;6104994;23;20016;-93
2024/02/10 19:48:43;;;;;;;21.50;18.87;;;;;;;;;;6105200;23;20076;-92
2024/02/10 19:51:10;;;;;;;19.80;17.05;;;;;;;;;;6103876;23;20068;-93
2024/02/10 19:53:39;;;;;;;23.65;17.52;;;;;;;;;;6105338;23;20005;-92
2024/02/10 19:56:05;;;;;;;19.05;16.90;;;;;;;;;;6105568;23;20333;-93
2024/02/10 19:58:35;;;;;;;33.25;14.45;;;;;;;;;;6106052;23;20428;-90
2024/02/10 20:01:02;;;;;;;23.52;13.88;;;;;;;;;;6105844;23;20045;-94
2024/02/10 20:03:29;;;;;;;29.17;12.55;;;;;;;;;;6107180;23;20424;-94
2024/02/10 20:05:57;;;;;;;23.75;17.83;;;;;;;;;;6106908;23;20012;-89
2024/02/10 20:08:23;;;;;;;22.33;12.95;;;;;;;;;;6130407;23;20021;-92
2024/02/10 20:10:50;;;;;;;20.42;10.60;;;;;;;;;;6130194;23;20009;-94
2024/02/10 20:13:16;;;;;;;21.65;15.65;;;;;;;;;;6105556;23;20008;-95
2024/02/10 20:15:42;;;;;;;24.25;19.30;;;;;;;;;;6105442;23;20010;-94
2024/02/10 20:18:08;;;;;;;16.67;11.75;;;;;;;;;;6106130;23;20059;-96
2024/02/10 20:20:36;;;;;;;23.65;12.95;;;;;;;;;;6120830;23;20018;-94
2024/02/10 20:23:04;;;;;;;20.10;10.15;;;;;;;;;;6152425;23;20010;-92
2024/02/10 20:25:35;;;;;;;16.25;13.82;;;;;;;;;;6110744;23;20014;-95
2024/02/10 20:28:02;;;;;;;19.42;12.70;;;;;;;;;;6104987;23;20085;-95
2024/02/10 20:30:29;;;;;;;15.40;8.35;;;;;;;;;;6104099;23;20014;-92
2024/02/10 20:32:57;;;;;;;17.17;6.68;;;;;;;;;;6132256;23;20504;-96
2024/02/10 20:35:24;;;;;;;22.90;9.70;;;;;;;;;;6082101;23;20018;-95
2024/02/10 20:37:51;;;;;;;15.52;5.82;;;;;;;;;;6081451;23;20097;-95
2024/02/10 20:40:18;;;;;;;18.05;7.65;;;;;;;;;;6104913;23;20022;-94
2024/02/10 20:42:48;;;;;;;17.00;8.65;;;;;;;;;;6104217;23;20002;-94
2024/02/10 20:45:18;;;;;;;17.00;8.57;;;;;;;;;;6104587;23;20006;-94
2024/02/10 20:47:44;;;;;;;16.10;14.38;;;;;;;;;;6104655;23;20487;-94
2024/02/10 20:50:10;;;;;;;19.00;9.80;;;;;;;;;;6104734;23;20022;-94
2024/02/10 20:52:40;;;;;;;13.65;10.30;;;;;;;;;;6105492;23;20002;-90
2024/02/10 20:55:07;;;;;;;17.23;8.07;;;;;;;;;;6105248;23;20376;-95
2024/02/10 21:00:39;;;;;;;20.20;9.63;;;;;;;;;;6130504;23;20064;-92
2024/02/10 21:03:07;;;;;;;21.73;7.47;;;;;;;;;;6109225;23;20466;-93
2024/02/10 21:05:36;;;;;;;13.20;5.53;;;;;;;;;;6134939;23;20009;-95
2024/02/10 21:08:04;;;;;;;11.60;3.80;;;;;;;;;;6104115;23;20017;-95
2024/02/10 21:10:30;;;;;;;10.82;4.45;;;;;;;;;;6109101;23;20049;-96
2024/02/10 21:12:59;;;;;;;11.20;3.30;;;;;;;;;;6107995;23;20002;-95
2024/02/10 21:15:26;;;;;;;12.60;3.67;;;;;;;;;;6108115;23;20013;-96
2024/02/10 21:17:53;;;;;;;12.02;3.17;;;;;;;;;;6107840;23;20009;-96
2024/02/10 21:20:22;;;;;;;12.70;3.17;;;;;;;;;;6107545;23;20009;-96
2024/02/10 21:22:49;;;;;;;12.48;2.53;;;;;;;;;;6108635;23;20006;-96
2024/02/10 21:25:15;;;;;;;12.52;2.83;;;;;;;;;;6084199;23;20006;-96
2024/02/10 21:27:45;;;;;;;16.20;3.25;;;;;;;;;;6107451;23;20093;-93
2024/02/10 21:30:17;;;;;;;11.50;3.28;;;;;;;;;;6112291;23;20351;-96
2024/02/10 21:32:46;;;;;;;15.73;3.15;;;;;;;;;;6113646;23;20049;-96
2024/02/10 21:35:36;;;;;;;17.33;2.97;;;;;;;;;;6139412;23;20376;-94
2024/02/10 21:38:02;;;;;;;9.10;2.50;;;;;;;;;;6115022;23;20093;-96
2024/02/10 21:40:28;;;;;;;11.45;2.97;;;;;;;;;;6113592;23;20022;-96
2024/02/10 21:43:07;;;;;;;10.50;2.78;;;;;;;;;;6116040;23;20006;-96
2024/02/10 21:45:57;;;;;;;15.25;2.80;;;;;;;;;;6141632;23;20024;-95
2024/02/10 21:48:29;;;;;;;12.00;3.15;;;;;;;;;;6062093;23;20013;-96
2024/02/10 21:50:56;;;;;;;17.58;4.03;;;;;;;;;;6111266;23;20044;-96
2024/02/10 21:53:25;;;;;;;16.25;4.22;;;;;;;;;;6110582;23;20082;-96
2024/02/10 21:55:57;;;;;;;19.60;4.00;;;;;;;;;;6111263;23;20076;-96
2024/02/10 21:58:28;;;;;;;18.92;3.90;;;;;;;;;;6110651;23;20010;-95
2024/02/10 22:00:56;;;;;;;16.65;3.97;;;;;;;;;;6112942;23;20428;-96
2024/02/10 22:03:26;;;;;;;14.75;3.72;;;;;;;;;;6141574;23;20000;-92
2024/02/10 22:05:53;;;;;;;12.13;4.00;;;;;;;;;;6129948;23;19998;-93
2024/02/10 22:08:19;;;;;;;20.40;4.07;;;;;;;;;;6126343;23;20014;-95
2024/02/10 22:11:05;;;;;;;23.15;4.20;;;;;;;;;;6120987;23;19994;-95
2024/02/10 22:16:12;;;;;;;25.38;5.75;;;;;;;;;;6176478;23;20030;-95
2024/02/10 22:26:26;;;;;;;16.42;3.97;;;;;;;;;;6139857;23;20022;-94
2024/02/10 22:28:59;;;;;;;24.17;5.07;;;;;;;;;;6109622;23;20006;-93
2024/02/10 22:31:35;;;;;;;17.88;4.75;;;;;;;;;;6134254;23;20021;-96
2024/02/10 22:34:02;;;;;;;24.58;5.13;;;;;;;;;;6110856;23;20077;-96
2024/02/10 22:36:29;;;;;;;18.08;4.40;;;;;;;;;;6113365;23;20037;-95
2024/02/10 22:38:59;;;;;;;21.73;4.28;;;;;;;;;;6112877;23;20002;-95
2024/02/10 22:41:31;;;;;;;22.17;4.03;;;;;;;;;;6116348;23;19986;-93
2024/02/10 22:43:57;;;;;;;17.95;4.30;;;;;;;;;;6124420;23;20026;-95
2024/02/10 22:46:24;;;;;;;19.98;4.35;;;;;;;;;;6113435;23;20006;-95
2024/02/10 22:49:12;;;;;;;15.52;3.92;;;;;;;;;;6140378;23;20010;-96
2024/02/10 22:52:08;;;;;;;16.17;4.32;;;;;;;;;;6095853;23;20081;-96
2024/02/10 22:54:53;;;;;;;11.07;3.70;;;;;;;;;;6134315;23;20028;-94
2024/02/10 23:00:55;;;;;;;12.57;3.28;;;;;;;;;;6099717;23;20017;-92
2024/02/10 23:06:51;;;;;;;12.65;3.10;;;;;;;;;;6148569;23;20006;-93
2024/02/10 23:09:18;;;;;;;14.25;3.03;;;;;;;;;;6122193;23;20002;-94
2024/02/10 23:11:52;;;;;;;10.35;2.42;;;;;;;;;;6122973;23;20014;-94
2024/02/10 23:14:37;;;;;;;14.40;3.45;;;;;;;;;;6115866;23;20041;-96
2024/02/10 23:17:15;;;;;;;14.70;3.72;;;;;;;;;;6118864;23;20420;-95
2024/02/10 23:19:52;;;;;;;14.00;3.53;;;;;;;;;;6113871;23;20009;-96
2024/02/10 23:22:29;;;;;;;12.23;3.80;;;;;;;;;;6112214;23;20016;-96
2024/02/10 23:25:02;;;;;;;12.02;3.20;;;;;;;;;;6116125;23;19986;-95
2024/02/10 23:27:50;;;;;;;14.20;3.55;;;;;;;;;;6134833;23;20006;-95
2024/02/10 23:30:18;;;;;;;13.02;3.38;;;;;;;;;;6086034;23;20010;-96
2024/02/10 23:32:47;;;;;;;13.73;3.45;;;;;;;;;;6134959;23;20022;-94
2024/02/10 23:35:13;;;;;;;12.00;3.40;;;;;;;;;;6109381;23;20005;-96
2024/02/10 23:37:41;;;;;;;10.18;3.17;;;;;;;;;;6108433;23;20006;-95
2024/02/10 23:40:13;;;;;;;15.15;3.75;;;;;;;;;;6109637;23;20001;-95
2024/02/10 23:42:42;;;;;;;12.32;5.68;;;;;;;;;;6133412;23;20373;-96
2024/02/10 23:45:09;;;;;;;11.95;3.63;;;;;;;;;;6108220;23;20002;-96
2024/02/10 23:50:49;;;;;;;;;;;;;;;;;;;;;
2024/02/10 23:53:16;;;;;;;10.93;2.78;;;;;;;;;;6112824;23;20018;-96
2024/02/10 23:56:18;;;;;;;13.55;4.03;;;;;;;;;;6110806;23;20069;-96
2024/02/10 23:58:57;;;;;;;9.65;3.35;;;;;;;;;;6081709;23;20010;-95
